This is the latest recevied weather packets stored in our database for station/object KI5RKU-09. If no packets are shown the sender has not sent any weather packets the latest 10 day(s).
| Time | Temp. | Humidity | Pressure | Rain* | Wind** | Luminosity | Snow |
|---|---|---|---|---|---|---|---|
| 1777414229 | 26.11° C | 80% | 1010.3 hPa | 0 mm | - | 0 W/m² | - |
| 1777412427 | 26.67° C | 79% | 1011.3 hPa | 0 mm | - | 0 W/m² | - |
| 1777412126 | 26.67° C | 79% | 1011.3 hPa | 0 mm | - | 0 W/m² | - |
| 1777410627 | 26.67° C | 78% | 1010.7 hPa | 0 mm | - | 0 W/m² | - |
| 1777409155 | 26.67° C | 78% | 1011 hPa | 0 mm | - | 16 W/m² | - |
| 1777408826 | 26.67° C | 77% | 1010.7 hPa | 0 mm | - | 9 W/m² | - |
| 1777408526 | 26.67° C | 77% | 1010.2 hPa | 0 mm | - | 14 W/m² | - |
| 1777407628 | 27.22° C | 76% | 1010.2 hPa | 0 mm | - | 28 W/m² | - |
| 1777407341 | 27.22° C | 76% | 1010 hPa | 0 mm | - | 26 W/m² | - |
| 1777406731 | 27.22° C | 75% | 1010 hPa | 0 mm | - | 42 W/m² | - |
| 1777403743 | 27.78° C | 75% | 1011.3 hPa | 0 mm | - | 153 W/m² | - |
| 1777402842 | 28.33° C | 73% | 1011.8 hPa | 0 mm | - | 141 W/m² | - |
| 1777402228 | 28.89° C | 72% | 1012 hPa | 0 mm | - | 169 W/m² | - |
| 1777400145 | 27.78° C | 75% | 1012.6 hPa | 0 mm | - | 207 W/m² | - |
| 1777398927 | 27.78° C | 76% | 1012.7 hPa | 0 mm | - | 185 W/m² | - |
| 1777397469 | 26.67° C | 78% | 1013.1 hPa | 0 mm | - | 148 W/m² | - |
| 1777394127 | 25.56° C | 83% | 1013.6 hPa | 0 mm | - | 74 W/m² | - |
| 1777393228 | 25.56° C | 84% | 1013.9 hPa | 0 mm | - | 49 W/m² | - |
| 1777392328 | 25° C | 84% | 1013.9 hPa | 0 mm | - | 42 W/m² | - |
| 1777387227 | 24.44° C | 86% | 1013.1 hPa | 0 mm | - | 26 W/m² | - |
| 1777383627 | 24.44° C | 86% | 1012.9 hPa | 0 mm | - | 0 W/m² | - |
| 1777383042 | 24.44° C | 86% | 1013.1 hPa | 0 mm | - | 0 W/m² | - |
| 1777382728 | 24.44° C | 86% | 1013 hPa | 0 mm | - | 7 W/m² | - |
| 1777381830 | 24.44° C | 86% | 1012.7 hPa | 0 mm | - | 9 W/m² | - |
| 1777380343 | 24.44° C | 85% | 1012.7 hPa | 0 mm | - | 0 W/m² | - |
* Rain latest hour (hover to see other rain measurements)
** Current wind speed in m/s (hover to see current wind gust speed)